Latest Weather Observations for Edinburgh

IDS60901

Issued at 10:41 pm CDT Saturday 28 March 2015 (issued every 10 minutes, with the page automatically refreshed every 10 minutes)

About weather observations | Map of Adelaide area stations | Latest observations for Adelaide area | Other Formats
Station Details ID: 023083 Name: EDINBURGH RAAF Lat: -34.71 Lon: 138.62 Height: 16.54 m
Data from the previous 72 hours. | See also: Recent months at Edinburgh
Date/Time
CDT
Tmp

°C
App
Tmp
°C
Dew
Point
°C
Rel
Hum
%
Delta-T

°C
Wind Press
QNH
hPa
Press
MSL
hPa
Rain
since
9 am
mm
Dir
 
Spd
km/h
Gust
km/h
Spd
kts
Gust
kts
28/10:30pm 15.5 14.7 6.5 55 4.4 CALM 0 0 0 0 1022.3 1022.2 0.0
28/10:00pm 16.6 14.6 6.4 51 5.0 ENE 6 6 3 3 1022.2 1022.1 0.0
28/09:30pm 16.9 14.9 6.1 49 5.2 ENE 6 7 3 4 1022.1 1022.0 0.0
28/09:00pm 17.8 15.6 6.3 47 5.6 ENE 7 7 4 4 1021.8 1021.7 0.0
28/08:00pm 19.5 18.5 5.6 40 6.8 CALM 0 0 0 0 1021.7 1021.6 0.0
28/07:30pm 19.8 17.6 5.5 39 7.0 SSW 6 7 3 4 1021.5 1021.4 0.0
28/07:00pm 20.4 17.7 5.6 38 7.3 SSW 9 13 5 7 1021.1 1021.0 0.0
28/06:30pm 21.2 17.5 4.7 34 8.0 WSW 13 17 7 9 1021.0 1020.9 0.0
28/06:00pm 22.0 18.4 5.0 33 8.4 SW 13 17 7 9 1020.6 1020.5 0.0
28/05:30pm 22.0 18.9 5.4 34 8.2 SW 11 15 6 8 1020.6 1020.5 0.0
28/05:00pm 22.0 17.6 5.0 33 8.4 W 17 22 9 12 1020.9 1020.8 0.0
28/04:30pm 22.7 18.0 5.2 32 8.7 WSW 19 24 10 13 1021.3 1021.2 0.0
28/04:00pm 22.7 17.8 5.2 32 8.7 WSW 20 30 11 16 1021.3 1021.2 0.0
28/03:30pm 22.2 17.9 6.8 37 7.9 WSW 19 28 10 15 1021.7 1021.6 0.0
28/03:00pm 21.4 16.9 8.7 44 6.7 WSW 22 28 12 15 1022.1 1022.0 0.0
28/02:30pm 22.8 18.7 8.5 40 7.6 WSW 20 32 11 17 1022.3 1022.2 0.0
28/02:00pm 22.2 17.8 9.0 43 7.0 W 22 32 12 17 1022.8 1022.7 0.0
28/01:30pm 22.6 18.5 6.4 35 8.2 NNW 17 28 9 15 1023.0 1022.9 0.0
28/01:00pm 22.6 18.8 7.6 38 7.8 N 17 26 9 14 1023.5 1023.4 0.0
28/12:30pm 21.6 18.2 7.8 41 7.1 N 15 24 8 13 1024.0 1023.9 0.0
28/12:00pm 20.8 16.2 8.1 44 6.6 NNE 22 30 12 16 1024.5 1024.4 0.0
28/11:00am 18.4 13.9 8.4 52 5.2 NNE 22 30 12 16 1025.2 1025.1 0.0
28/10:30am 17.7 12.8 8.6 55 4.7 NE 24 32 13 17 1025.6 1025.5 0.0
28/10:00am 16.9 12.4 8.6 58 4.3 NE 22 30 12 16 1025.9 1025.8 0.0
28/09:30am 14.2 12.7 9.2 72 2.5 NNE 7 11 4 6 1026.0 1025.9 0.0
28/09:00am 12.4 10.9 9.1 80 1.6 N 7 9 4 5 1026.0 1025.9 0.0
28/08:30am 10.3 8.7 8.6 89 0.8 NNE 7 9 4 5 1025.7 1025.6 0.0
28/08:00am 8.7 8.0 7.0 89 0.8 CALM 0 0 0 0 1025.6 1025.5 0.0
28/07:30am 8.5 7.8 6.8 89 0.8 CALM 0 0 0 0 1025.5 1025.4 0.0
28/07:00am 8.9 8.3 7.4 90 0.7 CALM 0 0 0 0 1025.5 1025.4 0.0
28/06:30am 8.4 7.6 6.7 89 0.8 CALM 0 0 0 0 1025.7 1025.6 0.0
28/06:00am 9.0 8.3 7.1 88 0.9 CALM 0 0 0 0 1025.5 1025.4 0.0
28/05:30am 9.1 7.7 7.1 87 0.9 WSW 4 6 2 3 1025.8 1025.7 0.0
28/05:00am 9.0 7.1 6.8 86 1.0 WSW 6 6 3 3 1025.7 1025.6 0.0
28/04:30am 9.4 7.3 6.8 84 1.2 N 7 11 4 6 1025.6 1025.5 0.0
28/04:00am 10.7 8.1 7.8 82 1.4 N 11 13 6 7 1025.6 1025.5 0.0
28/03:30am 9.7 7.7 7.1 84 1.2 N 7 9 4 5 1025.4 1025.3 0.0
28/03:00am 12.2 10.5 7.5 73 2.3 E 6 9 3 5 1025.5 1025.4 0.0
28/02:30am 13.1 11.1 8.6 74 2.2 ESE 9 13 5 7 1025.7 1025.6 0.0
28/02:00am 13.2 10.8 8.5 73 2.3 ESE 11 17 6 9 1026.2 1026.1 0.0
28/01:30am 13.4 10.6 8.5 72 2.4 SE 13 17 7 9 1026.6 1026.5 0.0
28/01:00am 13.7 10.8 8.3 70 2.7 ESE 13 17 7 9 1026.3 1026.2 0.0
28/12:30am 13.9 11.4 8.3 69 2.8 ESE 11 22 6 12 1026.3 1026.2 0.0
28/12:00am 14.2 11.4 8.4 68 2.9 ESE 13 17 7 9 1026.6 1026.5 0.0
 
Date/Time
CDT
Tmp

°C
App
Tmp
°C
Dew
Point
°C
Rel
Hum
%
Delta-T

°C
Wind Press
QNH
hPa
Press
MSL
hPa
Rain
since
9 am
mm
Dir
 
Spd
km/h
Gust
km/h
Spd
kts
Gust
kts
27/11:30pm 14.3 11.9 8.5 68 2.9 ESE 11 17 6 9 1026.9 1026.8 0.0
27/11:00pm 14.6 12.6 8.5 67 3.1 ESE 9 11 5 6 1027.0 1026.9 0.0
27/10:30pm 15.2 13.2 8.7 65 3.3 ESE 9 13 5 7 1027.2 1027.1 0.0
27/10:00pm 15.7 13.4 8.9 64 3.5 ESE 11 15 6 8 1027.2 1027.1 0.0
27/09:30pm 16.5 13.8 9.0 61 3.8 SE 13 19 7 10 1027.2 1027.1 0.0
27/09:00pm 17.0 15.0 8.7 58 4.2 SE 9 13 5 7 1026.9 1026.8 0.0
27/08:30pm 16.5 14.2 10.6 68 3.1 SSW 13 15 7 8 1026.7 1026.6 0.0
27/08:00pm 16.5 13.9 10.8 69 3.0 SSW 15 19 8 10 1026.4 1026.3 0.0
27/07:30pm 16.5 13.5 10.8 69 3.0 SSW 17 22 9 12 1026.4 1026.3 0.0
27/07:00pm 16.8 13.2 10.4 66 3.4 SSW 20 26 11 14 1026.4 1026.3 0.0
27/06:30pm 17.1 13.0 10.2 64 3.6 SSW 22 28 12 15 1026.2 1026.1 0.0
27/06:00pm 17.3 13.7 10.4 64 3.7 SW 20 24 11 13 1026.2 1026.1 0.0
27/05:30pm 17.6 13.9 10.2 62 3.9 SW 20 30 11 16 1026.1 1026.0 0.0
27/05:00pm 17.8 13.6 9.9 60 4.2 SW 22 28 12 15 1026.1 1026.0 0.0
27/04:30pm 18.2 13.9 9.5 57 4.6 SW 22 30 12 16 1026.3 1026.2 0.0
27/04:00pm 18.1 13.8 9.5 57 4.5 WSW 22 30 12 16 1026.3 1026.2 0.0
27/03:30pm 17.6 13.6 9.0 57 4.4 WSW 20 30 11 16 1026.5 1026.4 0.0
27/03:00pm 17.8 13.9 9.4 58 4.4 WSW 20 28 11 15 1026.7 1026.6 0.0
27/02:30pm 17.8 13.5 9.4 58 4.4 WSW 22 32 12 17 1027.0 1026.9 0.0
27/02:00pm 18.2 14.3 9.3 56 4.7 W 20 32 11 17 1027.4 1027.3 0.0
27/01:30pm 17.9 14.1 9.0 56 4.6 W 19 30 10 16 1027.7 1027.6 0.0
27/01:00pm 17.4 13.8 8.3 55 4.7 WNW 17 24 9 13 1028.3 1028.2 0.0
27/12:30pm 17.5 14.2 8.1 54 4.8 WSW 15 24 8 13 1028.9 1028.8 0.0
27/12:00pm 17.2 14.5 7.5 53 4.8 SW 11 20 6 11 1029.2 1029.1 0.0
27/11:30am 16.4 14.0 8.6 60 4.0 WSW 11 17 6 9 1029.6 1029.5 0.0
27/11:00am 16.0 14.5 9.0 63 3.6 W 7 13 4 7 1029.7 1029.6 0.0
27/10:30am 14.9 13.1 9.3 69 2.9 WNW 9 17 5 9 1029.8 1029.7 0.0
27/10:00am 14.5 13.0 9.3 71 2.7 WNW 7 11 4 6 1030.0 1029.9 0.0
27/09:30am 14.2 12.8 9.4 73 2.4 NW 7 9 4 5 1029.8 1029.7 0.0
27/09:00am 13.3 10.4 9.7 79 1.8 NW 15 17 8 9 1029.7 1029.6 0.0
27/08:30am 13.0 11.3 9.8 81 1.6 NNW 9 15 5 8 1029.5 1029.4 0.0
27/08:00am 12.9 11.5 9.5 80 1.7 NNE 7 9 4 5 1029.2 1029.1 0.0
27/07:30am 12.7 10.5 9.5 81 1.6 N 11 13 6 7 1028.7 1028.6 0.0
27/07:00am 12.7 10.6 9.9 83 1.4 NW 11 13 6 7 1028.5 1028.4 0.0
27/06:30am 12.7 10.9 9.5 81 1.6 N 9 11 5 6 1028.2 1028.1 0.0
27/06:00am 12.5 10.8 9.9 84 1.3 NNW 9 11 5 6 1027.8 1027.7 0.0
27/05:30am 12.5 11.7 9.7 83 1.4 NNW 4 6 2 3 1027.6 1027.5 0.0
27/05:00am 12.5 11.2 9.3 81 1.6 N 6 7 3 4 1027.4 1027.3 0.0
27/04:30am 12.8 11.5 9.1 78 1.9 E 6 7 3 4 1027.6 1027.5 0.0
27/04:00am 12.5 11.2 9.9 84 1.3 ESE 7 9 4 5 1027.7 1027.6 0.0
27/03:30am 12.3 10.6 9.9 85 1.2 SSE 9 13 5 7 1028.0 1027.9 0.0
27/03:16am 12.4 10.5 9.2 81 1.6 SSE 9 15 5 8 1028.0 1027.9 0.0
27/03:00am 13.3 11.3 8.8 74 2.2 SSE 9 11 5 6 1028.0 1027.9 0.0
27/02:30am 12.9 11.5 8.8 76 2.0 SSE 6 9 3 5 1028.0 1027.9 0.0
27/02:00am 12.1 9.6 9.7 85 1.2 SW 13 17 7 9 1028.6 1028.5 0.0
27/01:30am 12.7 7.1 10.1 84 1.3 SW 30 35 16 19 1028.5 1028.4 0.0
27/01:25am 13.0 8.8 9.8 81 1.6 SW 22 35 12 19 1028.5 1028.4 0.0
27/01:00am 14.2 12.6 7.9 66 3.1 SSW 6 9 3 5 1028.4 1028.3 0.0
27/12:30am 14.2 11.2 7.9 66 3.1 S 13 19 7 10 1028.6 1028.5 0.0
27/12:00am 14.2 11.0 7.0 62 3.5 S 13 19 7 10 1028.4 1028.3 0.0
 
Date/Time
CDT
Tmp

°C
App
Tmp
°C
Dew
Point
°C
Rel
Hum
%
Delta-T

°C
Wind Press
QNH
hPa
Press
MSL
hPa
Rain
since
9 am
mm
Dir
 
Spd
km/h
Gust
km/h
Spd
kts
Gust
kts
26/11:30pm 14.1 12.2 7.4 64 3.3 S 7 11 4 6 1028.4 1028.3 0.0
26/11:00pm 14.1 11.4 7.4 64 3.3 S 11 17 6 9 1028.4 1028.3 0.0
26/10:30pm 14.2 11.1 7.3 63 3.4 S 13 19 7 10 1028.5 1028.4 0.0
26/10:00pm 14.8 10.3 7.1 60 3.8 S 20 30 11 16 1028.4 1028.3 0.0
26/09:30pm 15.4 10.6 5.6 52 4.6 SSW 20 24 11 13 1028.2 1028.1 0.0
26/09:00pm 15.4 10.0 6.4 55 4.3 S 24 35 13 19 1028.0 1027.9 0.0
26/08:30pm 15.7 10.3 6.4 54 4.5 SSW 24 39 13 21 1027.8 1027.7 0.0
26/08:00pm 15.7 10.9 5.6 51 4.8 SSW 20 28 11 15 1027.8 1027.7 0.0
26/07:30pm 15.7 10.9 5.6 51 4.8 SSW 20 28 11 15 1027.6 1027.5 0.0
26/07:00pm 16.1 10.1 5.1 48 5.2 SSW 26 33 14 18 1027.3 1027.2 0.0
26/06:30pm 16.2 10.5 4.9 47 5.3 SSW 24 32 13 17 1027.1 1027.0 0.0
26/06:00pm 16.5 10.2 5.5 48 5.3 SSW 28 35 15 19 1026.7 1026.6 0.0
26/05:30pm 16.0 11.6 7.2 56 4.3 WSW 20 28 11 15 1026.6 1026.5 0.0
26/05:00pm 15.7 9.8 7.7 59 4.0 SSW 28 37 15 20 1026.7 1026.6 0.0
26/04:30pm 16.9 10.2 5.8 48 5.3 SW 30 37 16 20 1026.4 1026.3 0.0
26/04:00pm 18.5 12.2 5.7 43 6.3 SW 28 37 15 20 1026.2 1026.1 0.0
26/03:30pm 17.6 11.9 6.8 49 5.3 WSW 26 35 14 19 1026.3 1026.2 0.0
26/03:00pm 17.1 10.4 5.4 46 5.6 SW 30 37 16 20 1026.3 1026.2 0.0
26/02:30pm 17.6 11.1 6.5 48 5.5 SW 30 37 16 20 1026.4 1026.3 0.0
26/02:00pm 16.5 10.7 6.3 51 5.0 SW 26 35 14 19 1026.9 1026.8 0.0
26/01:30pm 18.4 11.3 5.6 43 6.2 SW 32 44 17 24 1026.8 1026.7 0.0
26/01:00pm 16.9 9.6 4.3 43 5.9 SW 32 46 17 25 1026.9 1026.8 0.0
26/12:30pm 17.1 9.9 4.8 44 5.8 SW 32 43 17 23 1026.8 1026.7 0.0
26/12:00pm 17.6 9.7 4.2 41 6.3 SW 35 46 19 25 1026.8 1026.7 0.0
26/11:30am 17.2 9.3 4.5 43 6.0 SW 35 43 19 23 1026.8 1026.7 0.0
26/11:00am 15.8 8.7 5.4 50 5.0 SSW 32 41 17 22 1026.8 1026.7 0.0
26/10:30am 16.9 9.2 5.2 46 5.6 SW 35 46 19 25 1026.4 1026.3 0.0
26/10:00am 15.3 8.0 4.7 49 5.0 SW 32 43 17 23 1026.2 1026.1 0.0
26/09:30am 15.8 8.3 4.5 47 5.3 SW 33 39 18 21 1025.8 1025.7 0.0
26/09:00am 14.4 7.1 4.4 51 4.6 SW 32 41 17 22 1025.5 1025.4 2.8
26/08:30am 14.6 8.0 4.0 49 4.8 SSW 28 37 15 20 1024.9 1024.8 2.8
26/08:00am 13.5 7.3 4.4 54 4.2 SW 26 35 14 19 1024.6 1024.5 2.8
26/07:30am 13.4 7.0 5.1 57 3.8 SW 28 37 15 20 1024.1 1024.0 2.8
26/07:00am 13.0 6.8 4.4 56 3.9 SW 26 33 14 18 1023.7 1023.6 2.8
26/06:30am 12.8 6.6 4.3 56 3.8 SW 26 35 14 19 1023.5 1023.4 2.8
26/06:00am 12.7 6.5 4.2 56 3.8 SW 26 37 14 20 1023.1 1023.0 2.8
26/05:30am 12.8 6.2 4.3 56 3.8 SW 28 35 15 19 1022.8 1022.7 2.8
26/05:00am 12.8 6.6 4.3 56 3.9 SW 26 33 14 18 1022.6 1022.5 2.8
26/04:30am 12.8 6.6 4.3 56 3.8 SW 26 33 14 18 1022.6 1022.5 2.8
26/04:00am 13.2 6.7 4.6 56 4.0 SSW 28 39 15 21 1022.4 1022.3 2.8
26/03:30am 13.3 8.1 5.5 59 3.6 SW 22 32 12 17 1022.2 1022.1 2.8
26/03:00am 13.4 6.6 5.1 57 3.8 SW 30 39 16 21 1022.3 1022.2 2.8
26/02:30am 13.3 6.8 4.7 56 3.9 SW 28 39 15 21 1022.3 1022.2 2.8
26/02:00am 13.7 6.9 5.1 56 4.0 SW 30 39 16 21 1022.2 1022.1 2.8
26/01:30am 13.2 6.6 4.1 54 4.1 SW 28 37 15 20 1022.2 1022.1 2.8
26/01:00am 13.3 6.4 4.7 56 4.0 SW 30 41 16 22 1021.9 1021.8 2.8
26/12:30am 13.6 6.7 4.7 55 4.1 SW 30 39 16 21 1021.9 1021.8 2.8
26/12:00am 13.8 8.3 5.9 59 3.7 SW 24 35 13 19 1021.8 1021.7 2.8
 
Date/Time
CDT
Tmp

°C
App
Tmp
°C
Dew
Point
°C
Rel
Hum
%
Delta-T

°C
Wind Press
QNH
hPa
Press
MSL
hPa
Rain
since
9 am
mm
Dir
 
Spd
km/h
Gust
km/h
Spd
kts
Gust
kts
25/11:30pm 13.7 6.8 4.8 55 4.1 SW 30 35 16 19 1021.8 1021.7 2.8
25/11:00pm 13.4 6.2 5.1 57 3.9 SW 32 43 17 23 1021.7 1021.6 2.8

Latest Capital City Observations: Canberra | Sydney | Melbourne | Brisbane | Adelaide | Perth | Hobart | Darwin

Other Formats:

Comma delimited format used in spreadsheet applications
http://www.bom.gov.au/fwo/IDS60901/IDS60901.95676.axf

JavaScript Object Notation format (JSON) in row-major order
http://www.bom.gov.au/fwo/IDS60901/IDS60901.95676.json